Time;durP1;ratioP1;P1;durP2;ratioP2;P2;SDS_P1;SDS_P2;PMS_P1;PMS_P2;Temp;Humidity;BMP_temperature;BMP_pressure;BME280_temperature;BME280_humidity;BME280_pressure;Samples;Min_cycle;Max_cycle;Signal;HPM_P1;HPM_P2
2023/09/21 05:37:51;;;;;;;7.53;4.90;;;15.50;1.00;;;;;;6160595;23;20431;-91
2023/09/21 05:50:13;;;;;;;6.23;4.30;;;;;;;;;;6152513;23;20439;-90
2023/09/21 06:32:20;;;;;;;6.57;4.70;;;;;;;;;;6193536;22;20392;-91
2023/09/21 07:32:11;;;;;;;7.00;4.07;;;18.40;1.00;;;;;;5191079;27;20346;-89
2023/09/21 07:34:48;;;;;;;5.67;4.10;;;18.50;1.00;;;;;;5155641;27;20432;-90
2023/09/21 07:37:18;;;;;;;5.60;4.07;;;;;;;;;;5156277;27;20516;-89
2023/09/21 07:39:48;;;;;;;4.03;3.63;;;;;;;;;;5146303;28;20521;-90
2023/09/21 07:42:25;;;;;;;5.10;4.60;;;18.70;1.00;;;;;;5141759;27;20444;-90
2023/09/21 07:45:01;;;;;;;3.20;2.90;;;18.80;55.40;;;;;;5138742;27;20449;-90
2023/09/21 07:47:32;;;;;;;5.43;3.50;;;;;;;;;;5136747;27;20432;-90
2023/09/21 07:50:02;;;;;;;4.90;3.90;;;18.90;1.00;;;;;;5144028;27;20441;-90
2023/09/21 07:52:32;;;;;;;6.40;3.67;;;;;;;;;;5156415;27;20432;-89
2023/09/21 07:55:11;;;;;;;6.20;3.67;;;;;;;;;;5156952;27;20531;-89
2023/09/21 07:57:39;;;;;;;3.60;3.20;;;;;;;;;;5142570;27;20873;-91
2023/09/21 08:00:18;;;;;;;6.00;3.47;;;19.20;18.90;;;;;;5139740;27;20454;-90
2023/09/21 08:02:53;;;;;;;3.57;2.93;;;;;;;;;;5140155;27;20465;-90
2023/09/21 08:05:44;;;;;;;3.43;3.13;;;19.40;99.90;;;;;;5138459;27;20456;-90
2023/09/21 08:08:27;;;;;;;5.50;3.73;;;19.50;99.90;;;;;;5137273;27;20970;-90
2023/09/21 08:10:57;;;;;;;9.23;3.63;;;;;;;;;;5135788;27;20470;-90
2023/09/21 08:13:45;;;;;;;4.60;3.80;;;19.70;1.00;;;;;;5142859;27;20449;-90
2023/09/21 08:16:39;;;;;;;4.57;4.10;;;19.80;1.00;;;;;;5154256;27;20468;-90
2023/09/21 08:19:25;;;;;;;6.43;3.90;;;19.90;1.00;;;;;;5139164;27;20564;-90
2023/09/21 08:21:59;;;;;;;3.57;3.27;;;;;;;;;;5136717;27;20455;-90
2023/09/21 08:27:11;;;;;;;4.50;3.13;;;;;;;;;;5133352;27;20518;-90
2023/09/21 08:29:41;;;;;;;4.13;2.77;;;;;;;;;;5146612;27;20446;-90
2023/09/21 08:32:09;;;;;;;3.27;2.90;;;;;;;;;;5150333;27;20502;-90
2023/09/21 08:34:54;;;;;;;3.73;3.43;;;20.30;1.00;;;;;;5137704;27;20470;-90
2023/09/21 08:37:25;;;;;;;7.63;3.70;;;;;;;;;;5134775;27;20451;-89
2023/09/21 08:39:52;;;;;;;10.63;3.77;;;;;;;;;;5137039;27;20515;-90
2023/09/21 08:42:25;;;;;;;4.33;3.20;;;;;;;;;;5129160;27;20435;-89
2023/09/21 08:45:07;;;;;;;3.53;3.23;;;20.60;1.00;;;;;;5121597;28;20459;-90
2023/09/21 08:47:37;;;;;;;3.60;3.00;;;;;;;;;;5121569;27;21085;-90
2023/09/21 08:50:25;;;;;;;3.73;3.27;;;20.70;1.00;;;;;;5122770;28;20561;-90
2023/09/21 08:53:01;;;;;;;4.30;3.80;;;20.80;1.00;;;;;;5122593;27;20447;-90
2023/09/21 08:55:37;;;;;;;3.83;3.43;;;20.90;1.00;;;;;;5123492;28;20438;-90
2023/09/21 08:58:24;;;;;;;3.90;2.53;;;21.00;1.00;;;;;;5122901;27;20443;-90
2023/09/21 09:00:59;;;;;;;5.70;3.27;;;21.10;1.00;;;;;;5124028;27;20526;-90
2023/09/21 09:03:33;;;;;;;2.90;2.70;;;;;;;;;;5123739;27;21021;-90
2023/09/21 09:06:05;;;;;;;2.70;2.50;;;20.50;1.00;;;;;;5125465;28;20435;-90
2023/09/21 09:08:35;;;;;;;2.97;2.77;;;;;;;;;;5124808;28;20451;-90
2023/09/21 09:11:04;;;;;;;3.30;3.07;;;;;;;;;;5126028;28;20493;-90
2023/09/21 09:14:00;;;;;;;3.73;3.20;;;21.50;1.00;;;;;;5123769;27;20447;-89
2023/09/21 09:16:34;;;;;;;4.20;2.70;;;21.50;1.00;;;;;;5129878;28;20451;-90
2023/09/21 09:19:11;;;;;;;2.30;2.10;;;21.60;1.00;;;;;;5123991;28;20469;-90
2023/09/21 09:21:50;;;;;;;3.10;2.50;;;21.70;1.00;;;;;;5129352;27;20496;-90
2023/09/21 09:24:28;;;;;;;11.57;3.70;;;;;;;;;;5128567;27;20454;-90
2023/09/21 09:27:01;;;;;;;4.40;3.30;;;21.80;1.00;;;;;;5127412;27;20455;-89
2023/09/21 09:29:30;;;;;;;3.40;3.10;;;;;;;;;;5123905;28;20462;-89
2023/09/21 09:31:59;;;;;;;2.73;2.50;;;;;;;;;;5123927;27;20570;-89
2023/09/21 09:34:41;;;;;;;2.70;2.50;;;22.00;1.00;;;;;;5124010;27;20902;-90
2023/09/21 09:37:25;;;;;;;3.20;2.50;;;22.10;1.00;;;;;;5122387;27;20465;-90
2023/09/21 09:39:56;;;;;;;3.73;3.30;;;22.20;1.00;;;;;;5123387;27;20500;-90
2023/09/21 09:42:41;;;;;;;2.70;2.50;;;22.30;1.00;;;;;;5133667;27;20431;-91
2023/09/21 09:45:24;;;;;;;6.30;2.27;;;22.40;1.00;;;;;;5123585;27;20439;-90
2023/09/21 09:48:01;;;;;;;8.10;2.73;;;22.40;1.00;;;;;;5135916;28;20411;-90
2023/09/21 09:50:37;;;;;;;3.47;2.60;;;22.50;1.00;;;;;;5139968;28;20449;-90
2023/09/21 09:53:13;;;;;;;4.00;2.27;;;22.70;1.00;;;;;;5140105;28;20435;-89
2023/09/21 09:55:53;;;;;;;2.87;2.60;;;22.70;1.00;;;;;;5140292;27;20441;-90
2023/09/21 09:58:40;;;;;;;3.27;2.97;;;22.80;1.00;;;;;;5140483;27;20456;-89
2023/09/21 10:01:23;;;;;;;3.07;2.60;;;22.80;1.00;;;;;;5140596;27;20451;-90
2023/09/21 10:03:54;;;;;;;2.90;2.47;;;22.80;1.00;;;;;;5135448;27;20415;-91
2023/09/21 10:06:22;;;;;;;2.43;2.23;;;;;;;;;;5140326;27;20442;-90
2023/09/21 10:08:56;;;;;;;3.43;2.67;;;23.00;1.00;;;;;;5140328;28;20435;-90
2023/09/21 10:11:29;;;;;;;4.13;2.00;;;23.00;1.00;;;;;;5139993;27;20468;-90
2023/09/21 10:14:03;;;;;;;3.00;2.53;;;23.10;1.00;;;;;;5140236;27;20423;-90
2023/09/21 10:17:10;;;;;;;2.70;2.50;;;23.20;1.00;;;;;;5140620;27;20418;-90
2023/09/21 10:19:38;;;;;;;3.50;2.70;;;;;;;;;;5127587;27;20461;-91
2023/09/21 10:22:43;;;;;;;7.73;3.10;;;23.30;1.00;;;;;;5123499;28;20443;-88
2023/09/21 10:25:37;;;;;;;7.13;2.47;;;23.40;1.00;;;;;;5122850;27;20474;-90
2023/09/21 10:28:45;;;;;;;3.00;2.70;;;23.50;1.00;;;;;;5125478;27;20440;-90
2023/09/21 10:31:35;;;;;;;3.07;2.80;;;23.50;1.00;;;;;;5113295;27;20478;-91
2023/09/21 10:34:08;;;;;;;3.83;2.27;;;23.50;1.00;;;;;;5138530;27;20431;-90
2023/09/21 10:36:57;;;;;;;4.50;1.90;;;23.60;1.00;;;;;;5138284;28;20417;-91
2023/09/21 10:39:32;;;;;;;2.07;1.90;;;23.70;1.00;;;;;;5139598;28;20955;-91
2023/09/21 10:42:37;;;;;;;3.23;2.47;;;24.00;1.00;;;;;;5139025;27;20438;-90
2023/09/21 10:45:22;;;;;;;2.23;2.13;;;24.00;1.00;;;;;;5124359;28;20486;-91
2023/09/21 10:47:53;;;;;;;3.70;2.23;;;23.80;1.00;;;;;;5121375;28;20414;-90
2023/09/21 10:50:24;;;;;;;3.67;2.67;;;23.90;1.00;;;;;;5121370;28;20446;-91
2023/09/21 10:53:18;;;;;;;2.70;2.30;;;23.90;1.00;;;;;;5119623;27;20481;-90
2023/09/21 10:55:52;;;;;;;2.50;2.30;;;24.00;1.00;;;;;;5120739;27;20768;-91
2023/09/21 10:58:34;;;;;;;3.10;1.90;;;24.00;1.00;;;;;;5120530;27;20528;-91
2023/09/21 11:01:06;;;;;;;2.17;1.97;;;;;;;;;;5119757;27;20445;-91
2023/09/21 11:03:52;;;;;;;2.13;2.03;;;24.10;1.00;;;;;;5119933;27;20978;-90
2023/09/21 11:06:33;;;;;;;2.40;2.20;;;24.10;1.00;;;;;;5120700;27;20487;-90
2023/09/21 11:09:21;;;;;;;2.00;1.90;;;24.10;1.00;;;;;;5119955;27;20523;-90
2023/09/21 11:11:52;;;;;;;2.47;2.37;;;24.10;1.00;;;;;;5120110;27;20484;-90
2023/09/21 11:14:48;;;;;;;3.10;2.40;;;24.10;1.00;;;;;;5121112;28;20414;-89
2023/09/21 11:17:19;;;;;;;4.83;2.53;;;;;;;;;;5120457;27;20457;-91
2023/09/21 11:19:55;;;;;;;2.17;2.07;;;24.20;1.00;;;;;;5123906;27;20521;-90
2023/09/21 11:22:39;;;;;;;3.07;2.87;;;24.30;1.00;;;;;;5137822;27;20478;-89
2023/09/21 11:25:20;;;;;;;4.00;2.67;;;24.40;1.00;;;;;;5137123;27;20454;-89
2023/09/21 11:28:03;;;;;;;5.07;2.60;;;24.50;1.00;;;;;;5128203;28;20918;-89
2023/09/21 11:30:44;;;;;;;2.40;2.07;;;24.70;1.00;;;;;;5132905;27;20514;-90
2023/09/21 11:39:31;;;;;;;2.03;1.93;;;24.70;1.00;;;;;;5117280;28;20553;-91
2023/09/21 11:45:24;;;;;;;2.30;2.07;;;24.90;1.00;;;;;;5097124;27;20474;-91
2023/09/21 11:48:01;;;;;;;2.30;2.10;;;24.20;1.00;;;;;;5122607;27;20431;-90
2023/09/21 11:50:30;;;;;;;3.00;2.70;;;24.90;1.00;;;;;;5122829;28;20521;-90
2023/09/21 11:53:11;;;;;;;3.97;1.97;;;24.90;1.00;;;;;;5131770;27;20633;-89
2023/09/21 11:55:57;;;;;;;5.70;2.67;;;24.90;1.00;;;;;;5135873;27;20423;-90
2023/09/21 11:58:39;;;;;;;2.63;2.43;;;25.00;1.00;;;;;;5137486;27;20467;-91
2023/09/21 12:01:22;;;;;;;3.77;2.80;;;25.00;1.00;;;;;;5126490;27;20449;-90
2023/09/21 12:03:59;;;;;;;3.30;3.00;;;25.40;1.00;;;;;;5133885;28;20423;-90
2023/09/21 12:06:32;;;;;;;5.37;2.40;;;25.10;1.00;;;;;;5138798;27;20509;-90
2023/09/21 12:09:06;;;;;;;5.83;3.27;;;;;;;;;;5136881;28;20542;-90
2023/09/21 12:11:45;;;;;;;5.23;2.97;;;25.20;1.00;;;;;;5122029;28;20503;-90
2023/09/21 12:14:29;;;;;;;4.17;3.63;;;25.20;1.00;;;;;;5119528;27;20538;-90
2023/09/21 12:17:09;;;;;;;3.57;3.00;;;25.20;1.00;;;;;;5120297;27;20455;-90
2023/09/21 12:20:11;;;;;;;7.73;4.37;;;25.30;1.00;;;;;;5123401;27;21103;-90
2023/09/21 12:25:53;;;;;;;2.63;2.20;;;25.40;99.90;;;;;;5121544;28;20450;-91
2023/09/21 12:28:39;;;;;;;2.77;1.97;;;25.40;99.90;;;;;;5131804;28;20552;-91
2023/09/21 12:31:19;;;;;;;2.50;2.00;;;25.40;99.90;;;;;;5142093;28;20438;-90
2023/09/21 12:34:14;;;;;;;6.00;2.33;;;25.40;1.00;;;;;;5140881;28;20467;-91
2023/09/21 12:36:59;;;;;;;2.90;2.00;;;25.50;99.90;;;;;;5134861;28;20398;-90
2023/09/21 12:39:35;;;;;;;2.13;1.97;;;25.60;99.90;;;;;;5138586;27;20458;-90
2023/09/21 12:42:22;;;;;;;2.30;2.17;;;25.60;99.90;;;;;;5128116;27;20445;-90
2023/09/21 12:45:14;;;;;;;2.83;2.63;;;25.60;99.90;;;;;;5125423;27;20537;-90
2023/09/21 12:47:42;;;;;;;2.60;2.40;;;;;;;;;;5131167;28;20446;-90
2023/09/21 12:50:13;;;;;;;5.60;2.93;;;25.30;1.00;;;;;;5128851;27;20558;-90
2023/09/21 12:52:58;;;;;;;2.60;2.10;;;25.80;99.90;;;;;;5123042;28;20457;-90
2023/09/21 12:55:27;;;;;;;1.73;1.63;;;;;;;;;;5136398;27;20475;-90
2023/09/21 12:58:11;;;;;;;2.50;2.30;;;25.70;99.90;;;;;;5135956;27;20474;-90
2023/09/21 13:00:45;;;;;;;2.43;1.57;;;25.70;99.90;;;;;;5127561;27;20446;-91
2023/09/21 13:03:25;;;;;;;2.00;1.90;;;25.60;99.90;;;;;;5126491;27;20442;-91
2023/09/21 13:06:05;;;;;;;3.87;2.57;;;25.60;99.90;;;;;;5125718;27;20435;-90
2023/09/21 13:08:45;;;;;;;13.03;3.90;;;25.60;99.90;;;;;;5127613;28;20483;-90
2023/09/21 13:11:17;;;;;;;2.47;2.10;;;;;;;;;;5125873;28;20956;-90
2023/09/21 13:13:53;;;;;;;3.40;1.77;;;25.70;99.90;;;;;;5126772;27;20842;-90
2023/09/21 13:16:21;;;;;;;2.20;2.00;;;;;;;;;;5127357;27;20451;-90
2023/09/21 13:18:58;;;;;;;2.47;2.20;;;25.80;99.90;;;;;;5127089;27;20463;-90
2023/09/21 13:21:34;;;;;;;2.60;2.10;;;25.80;99.90;;;;;;5126997;27;20481;-89
2023/09/21 13:24:13;;;;;;;3.53;2.43;;;25.90;99.90;;;;;;5126806;28;20514;-90
2023/09/21 13:26:48;;;;;;;2.37;2.10;;;;;;;;;;5125106;27;20468;-90
2023/09/21 13:29:35;;;;;;;1.90;1.80;;;26.10;99.90;;;;;;5127091;27;20466;-91
2023/09/21 16:49:04;;;;;;;5.10;3.47;;;23.90;1.00;;;;;;5229782;22;20512;-90
2023/09/21 16:51:46;;;;;;;4.90;3.97;;;23.80;1.00;;;;;;5047467;28;20777;-90
2023/09/21 16:54:15;;;;;;;5.93;4.30;;;23.80;1.00;;;;;;5046723;28;20495;-89
2023/09/21 16:56:43;;;;;;;6.13;3.93;;;;;;;;;;5046036;28;20486;-90
2023/09/21 16:59:15;;;;;;;4.90;3.90;;;23.80;1.00;;;;;;5047707;28;20492;-90
2023/09/21 17:01:58;;;;;;;12.03;4.40;;;23.70;1.00;;;;;;5346590;22;20517;-92
2023/09/21 17:04:56;;;;;;;5.50;5.00;;;23.60;1.00;;;;;;5044523;28;20457;-92
2023/09/21 17:07:36;;;;;;;5.93;4.13;;;23.60;1.00;;;;;;5050811;28;20463;-91
2023/09/21 17:36:30;;;;;;;6.50;4.60;;;23.20;1.00;;;;;;4959405;28;20522;-90
2023/09/21 18:51:42;;;;;;;14.93;11.77;;;22.00;1.00;;;;;;5004730;28;20449;-91
2023/09/21 18:54:25;;;;;;;14.97;10.77;;;;;;;;;;5000783;28;20818;-91
2023/09/21 18:57:19;;;;;;;14.20;11.90;;;21.90;1.00;;;;;;5002478;28;20531;-91
2023/09/21 19:02:53;;;;;;;12.53;9.60;;;;;;;;;;4999057;28;20541;-91
2023/09/21 19:05:34;;;;;;;;;;;;;;;;;;;;;
2023/09/21 19:14:02;;;;;;;13.77;11.60;;;;;;;;;;5013074;28;20476;-92
2023/09/21 19:19:55;;;;;;;11.30;10.20;;;;;;;;;;4957778;28;20496;-92
2023/09/21 19:22:54;;;;;;;22.30;15.80;;;21.50;1.00;;;;;;5005427;28;20457;-91
2023/09/21 19:32:13;;;;;;;16.80;12.27;;;21.40;1.00;;;;;;5077649;22;20487;-90
2023/09/21 19:37:41;;;;;;;15.73;10.80;;;;;;;;;;5022757;28;20511;-91
2023/09/21 19:58:17;;;;;;;10.67;9.37;;;21.20;1.00;;;;;;4792409;30;20448;-91
2023/09/21 20:24:37;;;;;;;9.93;8.17;;;21.00;1.00;;;;;;4874335;29;20432;-92
2023/09/21 20:34:20;;;;;;;10.03;9.03;;;20.90;1.00;;;;;;5019460;28;20475;-92
2023/09/21 20:54:59;;;;;;;;;;;;;;;;;;;;;
2023/09/21 21:00:45;;;;;;;15.60;9.43;;;20.70;1.00;;;;;;5110819;22;20487;-90
2023/09/21 21:04:06;;;;;;;10.13;7.20;;;21.10;99.90;;;;;;4981646;28;20453;-90
2023/09/21 21:39:29;;;;;;;11.13;6.90;;;;;;;;;;4986808;28;20962;-91
2023/09/21 21:46:10;;;;;;;11.20;7.03;;;20.10;62.80;;;;;;4883512;29;20430;-91
2023/09/21 21:55:32;;;;;;;9.10;7.67;;;19.90;99.90;;;;;;4831156;29;20468;-90
2023/09/21 22:02:50;;;;;;;13.53;8.53;;;19.90;99.90;;;;;;4914956;29;20511;-91
2023/09/21 23:01:26;;;;;;;9.67;5.83;;;19.60;79.80;;;;;;5428864;23;20507;-89
2023/09/21 23:07:59;;;;;;;6.73;5.90;;;19.50;99.90;;;;;;4936369;28;20476;-89
2023/09/21 23:32:07;;;;;;;6.27;5.63;;;19.30;99.90;;;;;;4963150;28;20502;-89
2023/09/21 23:35:12;;;;;;;5.87;5.37;;;19.30;99.90;;;;;;4961394;29;21017;-89
2023/09/21 23:37:48;;;;;;;7.73;6.13;;;;;;;;;;4965742;29;20504;-89
2023/09/21 23:40:34;;;;;;;10.03;6.40;;;19.20;99.90;;;;;;4966916;28;20509;-90
2023/09/21 23:55:43;;;;;;;12.17;6.00;;;19.00;99.90;;;;;;4972597;29;20478;-88
